Time;durP1;ratioP1;P1;durP2;ratioP2;P2;SDS_P1;SDS_P2;PMS_P1;PMS_P2;Temp;Humidity;BMP_temperature;BMP_pressure;BME280_temperature;BME280_humidity;BME280_pressure;Samples;Min_cycle;Max_cycle;Signal;HPM_P1;HPM_P2
2022/09/24 00:01:32;;;;;;;3.85;2.35;;;13.00;99.90;;;;;;4920242;29;20398;-88
2022/09/24 00:04:03;;;;;;;3.15;2.22;;;12.90;99.90;;;;;;4923432;29;20174;-88
2022/09/24 00:06:37;;;;;;;2.78;2.00;;;13.00;99.90;;;;;;4925082;29;20201;-88
2022/09/24 00:09:13;;;;;;;2.47;1.70;;;12.90;99.90;;;;;;4938562;29;20194;-88
2022/09/24 00:11:44;;;;;;;3.40;2.20;;;13.00;99.90;;;;;;4920531;29;20172;-88
2022/09/24 00:14:10;;;;;;;2.28;1.98;;;12.90;99.90;;;;;;4920844;29;20166;-88
2022/09/24 00:16:39;;;;;;;3.67;2.20;;;12.90;99.90;;;;;;4920822;29;20166;-88
2022/09/24 00:19:05;;;;;;;5.10;2.13;;;12.90;99.90;;;;;;4920880;29;20170;-87
2022/09/24 00:21:33;;;;;;;3.60;2.03;;;12.90;99.90;;;;;;4936352;29;20222;-88
2022/09/24 00:24:03;;;;;;;3.08;2.20;;;12.90;99.90;;;;;;4920446;29;20170;-88
2022/09/24 00:29:19;;;;;;;3.38;2.13;;;12.80;99.90;;;;;;4937451;29;20237;-89
2022/09/24 00:31:46;;;;;;;3.42;2.15;;;12.80;99.90;;;;;;4920324;29;20163;-88
2022/09/24 00:34:17;;;;;;;2.38;2.17;;;12.80;99.90;;;;;;4920115;29;20162;-88
2022/09/24 00:36:48;;;;;;;2.35;1.85;;;12.80;99.90;;;;;;4920075;29;20166;-88
2022/09/24 00:39:25;;;;;;;3.55;1.90;;;12.80;99.90;;;;;;4920240;29;20173;-89
2022/09/24 00:41:50;;;;;;;4.30;2.42;;;12.70;99.90;;;;;;4920205;29;20213;-88
2022/09/24 00:44:45;;;;;;;2.95;2.13;;;12.70;99.90;;;;;;4920126;29;20170;-88
2022/09/24 00:47:46;;;;;;;4.82;2.58;;;12.70;99.90;;;;;;4919851;29;20198;-88
2022/09/24 00:50:19;;;;;;;2.65;2.08;;;12.70;99.90;;;;;;4937041;29;20230;-87
2022/09/24 00:53:01;;;;;;;3.67;1.98;;;12.70;99.90;;;;;;4920039;29;20598;-88
2022/09/24 00:55:36;;;;;;;1.92;1.63;;;12.70;99.90;;;;;;4913320;29;20209;-88
2022/09/24 00:58:14;;;;;;;5.95;2.10;;;12.70;99.90;;;;;;4918019;29;20253;-87
2022/09/24 01:00:44;;;;;;;2.92;2.03;;;12.80;99.90;;;;;;4900919;29;20285;-89
2022/09/24 01:03:18;;;;;;;2.67;2.15;;;12.80;99.90;;;;;;4900727;29;20210;-88
2022/09/24 01:05:48;;;;;;;2.20;2.00;;;12.70;99.90;;;;;;4900878;29;20202;-88
2022/09/24 01:08:16;;;;;;;5.78;2.20;;;12.80;99.90;;;;;;4900878;29;20696;-88
2022/09/24 01:14:38;;;;;;;3.03;1.95;;;12.60;99.90;;;;;;4917578;29;20319;-88
2022/09/24 01:17:26;;;;;;;2.55;2.17;;;12.60;99.90;;;;;;4900765;29;20202;-88
2022/09/24 01:20:30;;;;;;;2.13;1.90;;;12.70;99.90;;;;;;4917695;29;20167;-88
2022/09/24 01:23:22;;;;;;;2.92;2.45;;;12.70;99.90;;;;;;4900669;29;20223;-87
2022/09/24 01:26:21;;;;;;;2.03;1.80;;;12.70;99.90;;;;;;4900576;29;20276;-88
2022/09/24 01:29:24;;;;;;;2.40;1.98;;;12.70;99.90;;;;;;4917432;29;20226;-88
2022/09/24 01:32:09;;;;;;;6.68;2.20;;;12.70;99.90;;;;;;4900320;29;20182;-88
2022/09/24 01:34:55;;;;;;;2.30;2.10;;;12.70;99.90;;;;;;4900349;29;20194;-87
2022/09/24 01:37:30;;;;;;;3.45;1.92;;;12.60;99.90;;;;;;4900687;29;20214;-88
2022/09/24 01:39:57;;;;;;;2.30;2.10;;;12.60;99.90;;;;;;4900586;29;20193;-87
2022/09/24 01:42:26;;;;;;;2.50;2.05;;;12.60;99.90;;;;;;4900423;29;20182;-88
2022/09/24 01:44:56;;;;;;;4.38;2.10;;;12.60;99.90;;;;;;4917440;29;20218;-87
2022/09/24 01:47:38;;;;;;;3.25;1.95;;;12.50;99.90;;;;;;4917357;29;20331;-89
2022/09/24 01:50:07;;;;;;;2.50;2.05;;;12.50;99.90;;;;;;4900445;29;20179;-87
2022/09/24 01:52:44;;;;;;;2.30;1.85;;;12.50;99.90;;;;;;4917506;29;20557;-88
2022/09/24 01:55:24;;;;;;;3.55;1.80;;;12.50;99.90;;;;;;4900278;29;20316;-88
2022/09/24 01:58:07;;;;;;;2.20;1.65;;;12.50;99.90;;;;;;4917647;29;20182;-88
2022/09/24 02:00:45;;;;;;;2.13;1.92;;;12.40;99.90;;;;;;4921172;29;20196;-89
2022/09/24 02:03:16;;;;;;;2.78;2.00;;;12.40;99.90;;;;;;4904406;29;20269;-88
2022/09/24 02:06:02;;;;;;;4.40;2.15;;;12.40;99.90;;;;;;4919894;29;20213;-88
2022/09/24 02:08:43;;;;;;;3.08;2.20;;;12.50;99.90;;;;;;4919712;29;20293;-88
2022/09/24 02:11:23;;;;;;;2.65;2.03;;;12.60;99.90;;;;;;4918915;29;20217;-89
2022/09/24 02:13:55;;;;;;;5.47;2.33;;;12.60;99.90;;;;;;4919779;29;20266;-88
2022/09/24 02:16:29;;;;;;;5.97;2.20;;;12.50;99.90;;;;;;4903816;29;20209;-87
2022/09/24 02:18:57;;;;;;;3.78;2.17;;;12.50;99.90;;;;;;4919697;29;20257;-88
2022/09/24 02:21:25;;;;;;;7.80;2.53;;;12.50;99.90;;;;;;4919575;29;20643;-88
2022/09/24 02:23:57;;;;;;;2.55;1.88;;;12.40;99.90;;;;;;4918687;29;20190;-87
2022/09/24 02:26:22;;;;;;;2.33;1.85;;;12.40;99.90;;;;;;4905042;29;20297;-88
2022/09/24 02:28:49;;;;;;;2.30;1.92;;;12.30;99.90;;;;;;4884515;29;20668;-87
2022/09/24 02:31:29;;;;;;;2.65;2.13;;;12.30;99.90;;;;;;4900628;29;20168;-88
2022/09/24 02:34:19;;;;;;;7.40;2.42;;;12.30;99.90;;;;;;4900645;29;20172;-88
2022/09/24 02:36:51;;;;;;;2.50;1.85;;;12.30;99.90;;;;;;4900588;29;20167;-88
2022/09/24 02:39:18;;;;;;;2.55;2.35;;;12.20;99.90;;;;;;4884880;29;20228;-89
2022/09/24 02:41:47;;;;;;;3.78;2.67;;;12.20;99.90;;;;;;4884742;29;20167;-88
2022/09/24 02:44:15;;;;;;;3.78;2.28;;;12.30;99.90;;;;;;4884515;29;20315;-88
2022/09/24 02:46:42;;;;;;;4.68;2.60;;;12.20;99.90;;;;;;4884552;29;20175;-88
2022/09/24 02:49:09;;;;;;;5.38;2.47;;;12.30;99.90;;;;;;4884410;29;20199;-89
2022/09/24 02:51:35;;;;;;;2.90;2.60;;;12.30;99.90;;;;;;4884531;29;20278;-87
2022/09/24 02:54:01;;;;;;;2.75;2.50;;;12.20;99.90;;;;;;4900308;29;20646;-87
2022/09/24 02:56:28;;;;;;;6.10;2.47;;;12.30;99.90;;;;;;4928912;29;20206;-87
2022/09/24 02:59:03;;;;;;;3.63;2.45;;;12.20;99.90;;;;;;4922278;29;20210;-88
2022/09/24 03:01:32;;;;;;;4.38;2.30;;;12.20;99.90;;;;;;4922205;29;20181;-87
2022/09/24 03:03:58;;;;;;;3.63;2.70;;;12.10;99.90;;;;;;4921951;29;20649;-88
2022/09/24 03:06:24;;;;;;;4.28;2.35;;;12.10;99.90;;;;;;4921868;29;20206;-88
2022/09/24 03:08:57;;;;;;;4.88;2.63;;;12.10;99.90;;;;;;4938532;29;20194;-87
2022/09/24 03:11:24;;;;;;;6.13;2.72;;;12.10;99.90;;;;;;4938926;29;20162;-88
2022/09/24 03:13:50;;;;;;;6.03;2.20;;;12.10;99.90;;;;;;4922111;29;20201;-87
2022/09/24 03:16:20;;;;;;;3.00;2.63;;;12.00;99.90;;;;;;4922010;29;20194;-88
2022/09/24 03:18:52;;;;;;;2.40;2.20;;;12.10;99.90;;;;;;4921837;29;20185;-89
2022/09/24 03:21:21;;;;;;;4.75;2.70;;;12.10;99.90;;;;;;4921651;29;20558;-87
2022/09/24 03:23:47;;;;;;;3.55;2.47;;;12.10;99.90;;;;;;4922384;29;20299;-88
2022/09/24 03:26:17;;;;;;;2.72;2.28;;;12.00;99.90;;;;;;4938392;29;20255;-88
2022/09/24 03:28:43;;;;;;;5.30;2.53;;;12.10;99.90;;;;;;4921518;29;20253;-87
2022/09/24 03:31:15;;;;;;;3.22;2.20;;;12.00;99.90;;;;;;4921546;29;20173;-87
2022/09/24 03:33:46;;;;;;;4.72;2.58;;;12.00;99.90;;;;;;4921601;29;20170;-88
2022/09/24 03:36:19;;;;;;;3.55;2.42;;;12.00;99.90;;;;;;4938395;29;20194;-87
2022/09/24 03:38:47;;;;;;;5.45;2.78;;;11.90;99.90;;;;;;4921301;29;20181;-87
2022/09/24 03:41:15;;;;;;;3.05;2.58;;;11.90;99.90;;;;;;4921166;29;20182;-87
2022/09/24 03:43:42;;;;;;;4.40;2.58;;;12.00;99.90;;;;;;4921426;29;20177;-88
2022/09/24 03:46:09;;;;;;;3.97;2.58;;;12.00;99.90;;;;;;4921068;29;20209;-88
2022/09/24 03:48:37;;;;;;;3.03;2.60;;;12.00;99.90;;;;;;4921175;29;20201;-88
2022/09/24 03:51:17;;;;;;;3.47;2.60;;;12.00;99.90;;;;;;4920853;29;20261;-87
2022/09/24 03:53:45;;;;;;;3.25;2.75;;;12.00;99.90;;;;;;4920751;29;20685;-88
2022/09/24 03:56:13;;;;;;;3.33;2.65;;;12.00;99.90;;;;;;4924308;29;20214;-88
2022/09/24 03:58:46;;;;;;;4.75;3.00;;;11.90;99.90;;;;;;4902187;29;20211;-88
2022/09/24 04:01:20;;;;;;;3.75;3.15;;;11.90;99.90;;;;;;4902183;29;20179;-87
2022/09/24 04:03:47;;;;;;;3.75;2.45;;;11.90;99.90;;;;;;4902230;29;20273;-88
2022/09/24 04:06:25;;;;;;;3.28;2.45;;;11.90;99.90;;;;;;4901734;29;20202;-87
2022/09/24 04:08:53;;;;;;;5.53;2.53;;;11.90;99.90;;;;;;4902081;29;20219;-87
2022/09/24 04:11:19;;;;;;;4.97;2.63;;;12.00;99.90;;;;;;4917504;29;20206;-88
2022/09/24 04:13:50;;;;;;;5.57;2.50;;;12.00;99.90;;;;;;4918874;29;20205;-87
2022/09/24 04:16:16;;;;;;;2.90;2.60;;;11.90;99.90;;;;;;4901872;29;20211;-88
2022/09/24 04:18:42;;;;;;;6.68;2.60;;;12.00;99.90;;;;;;4901709;29;20189;-87
2022/09/24 04:21:09;;;;;;;3.42;2.90;;;12.00;99.90;;;;;;4901103;29;20527;-87
2022/09/24 04:23:35;;;;;;;4.72;2.80;;;11.90;99.90;;;;;;4901544;29;20261;-88
2022/09/24 04:26:02;;;;;;;4.07;2.90;;;11.90;99.90;;;;;;4900705;29;20675;-87
2022/09/24 04:28:30;;;;;;;3.90;2.92;;;11.90;99.90;;;;;;4899953;29;20292;-88
2022/09/24 04:30:56;;;;;;;3.28;2.97;;;11.90;99.90;;;;;;4901141;29;20178;-88
2022/09/24 04:33:26;;;;;;;3.90;2.97;;;11.90;99.90;;;;;;4901504;29;20179;-88
2022/09/24 04:35:54;;;;;;;4.22;3.20;;;11.90;99.90;;;;;;4901273;29;20199;-88
2022/09/24 04:38:23;;;;;;;5.30;2.78;;;12.00;99.90;;;;;;4917161;29;20557;-86
2022/09/24 04:40:50;;;;;;;4.68;2.63;;;12.00;99.90;;;;;;4917286;29;20214;-88
2022/09/24 04:43:17;;;;;;;3.70;3.20;;;12.00;99.90;;;;;;4901642;29;20175;-88
2022/09/24 04:45:45;;;;;;;3.72;2.95;;;12.00;99.90;;;;;;4901226;29;20342;-89
2022/09/24 04:48:11;;;;;;;3.88;2.60;;;12.00;99.90;;;;;;4901445;29;20260;-86
2022/09/24 04:50:38;;;;;;;5.25;3.20;;;12.00;99.90;;;;;;4901272;29;20171;-88
2022/09/24 04:53:05;;;;;;;4.78;3.05;;;12.00;99.90;;;;;;4901553;29;20170;-88
2022/09/24 04:55:31;;;;;;;2.83;2.35;;;12.00;99.90;;;;;;4916914;29;20206;-88
2022/09/24 04:57:57;;;;;;;3.80;2.90;;;12.00;99.90;;;;;;4900888;29;20182;-87
2022/09/24 05:00:24;;;;;;;2.60;2.40;;;12.00;99.90;;;;;;4900885;29;20179;-89
2022/09/24 05:03:02;;;;;;;6.70;3.30;;;12.00;99.90;;;;;;4900881;29;20517;-87
2022/09/24 05:05:31;;;;;;;5.95;2.95;;;12.00;99.90;;;;;;4900747;29;20226;-87
2022/09/24 05:07:59;;;;;;;3.45;3.10;;;12.00;99.90;;;;;;4901001;29;20221;-87
2022/09/24 05:10:29;;;;;;;3.50;2.67;;;12.00;99.90;;;;;;4900604;29;20186;-89
2022/09/24 05:12:56;;;;;;;3.38;2.67;;;12.00;99.90;;;;;;4917628;29;20232;-87
2022/09/24 05:15:22;;;;;;;3.28;2.72;;;12.00;99.90;;;;;;4916181;29;20226;-88
2022/09/24 05:17:48;;;;;;;4.22;2.85;;;11.90;99.90;;;;;;4900130;29;20648;-87
2022/09/24 05:20:16;;;;;;;5.35;3.20;;;12.00;99.90;;;;;;4900725;29;20517;-88
2022/09/24 05:22:46;;;;;;;5.57;2.95;;;12.00;99.90;;;;;;4916402;29;20175;-87
2022/09/24 05:25:13;;;;;;;4.30;2.78;;;12.00;99.90;;;;;;4904585;29;20244;-88
2022/09/24 05:27:44;;;;;;;3.00;2.70;;;12.00;99.90;;;;;;4919372;29;20206;-88
2022/09/24 05:30:13;;;;;;;4.65;2.90;;;12.00;99.90;;;;;;4919735;29;20182;-88
2022/09/24 05:32:42;;;;;;;3.15;2.83;;;12.00;99.90;;;;;;4936268;29;20163;-88
2022/09/24 05:35:10;;;;;;;5.00;2.78;;;11.90;99.90;;;;;;4919141;29;20209;-87
2022/09/24 05:37:38;;;;;;;4.35;3.25;;;12.00;99.90;;;;;;4919445;29;20186;-87
2022/09/24 05:43:01;;;;;;;6.43;3.17;;;12.00;99.90;;;;;;4936526;29;20233;-88
2022/09/24 05:45:29;;;;;;;6.00;2.92;;;12.00;99.90;;;;;;4919185;29;20224;-88
2022/09/24 05:47:55;;;;;;;3.00;2.70;;;12.00;99.90;;;;;;4936249;29;20201;-88
2022/09/24 05:50:23;;;;;;;4.22;3.30;;;12.00;99.90;;;;;;4919102;29;20186;-88
2022/09/24 05:52:49;;;;;;;3.47;3.17;;;12.00;99.90;;;;;;4936345;29;20162;-88
2022/09/24 05:55:24;;;;;;;5.57;3.10;;;12.00;99.90;;;;;;4914092;29;20259;-89
2022/09/24 05:58:17;;;;;;;3.80;3.10;;;12.10;99.90;;;;;;4916176;29;20677;-88
2022/09/24 06:00:45;;;;;;;4.93;3.28;;;12.10;99.90;;;;;;4896877;29;20228;-89
2022/09/24 06:03:14;;;;;;;3.95;2.97;;;12.00;99.90;;;;;;4916174;29;20639;-88
2022/09/24 06:05:50;;;;;;;6.72;3.20;;;12.00;99.90;;;;;;4915837;29;20202;-87
2022/09/24 06:08:25;;;;;;;4.75;2.88;;;12.00;99.90;;;;;;4917327;29;20196;-88
2022/09/24 06:10:53;;;;;;;3.90;2.97;;;12.00;99.90;;;;;;4900258;29;20650;-87
2022/09/24 06:13:24;;;;;;;5.82;2.90;;;11.90;99.90;;;;;;4915688;29;20207;-87
2022/09/24 06:15:52;;;;;;;6.65;3.08;;;11.90;99.90;;;;;;4915902;29;20198;-88
2022/09/24 06:18:29;;;;;;;4.30;3.00;;;12.00;99.90;;;;;;4915980;29;20582;-88
2022/09/24 06:21:03;;;;;;;3.88;2.80;;;12.00;99.90;;;;;;4915994;29;20179;-88
2022/09/24 06:23:30;;;;;;;3.25;2.92;;;12.10;99.90;;;;;;4915965;29;20231;-88
2022/09/24 06:25:57;;;;;;;3.60;2.53;;;12.10;99.90;;;;;;4905405;29;20265;-88
2022/09/24 06:28:24;;;;;;;4.80;2.42;;;12.10;99.90;;;;;;4881458;29;20219;-88
2022/09/24 06:30:50;;;;;;;7.32;3.22;;;12.10;99.90;;;;;;4881540;29;20334;-88
2022/09/24 06:33:19;;;;;;;5.53;3.00;;;12.20;99.90;;;;;;4881590;29;20182;-88
2022/09/24 06:35:47;;;;;;;4.35;3.15;;;12.20;99.90;;;;;;4898061;29;20995;-87
2022/09/24 06:38:19;;;;;;;3.10;2.80;;;12.20;99.90;;;;;;4880610;29;20196;-88
2022/09/24 06:40:51;;;;;;;3.63;3.13;;;12.20;99.90;;;;;;4881487;29;20175;-88
2022/09/24 06:43:19;;;;;;;7.72;3.45;;;12.30;99.90;;;;;;4881793;29;20175;-88
2022/09/24 06:45:46;;;;;;;5.72;3.95;;;12.30;99.90;;;;;;4883815;29;20290;-89
2022/09/24 06:48:14;;;;;;;8.27;4.15;;;12.30;99.90;;;;;;4884574;29;20587;-88
2022/09/24 06:50:44;;;;;;;4.55;3.72;;;12.40;99.90;;;;;;4884720;29;20323;-88
2022/09/24 06:53:11;;;;;;;5.63;4.00;;;12.50;99.90;;;;;;4884571;29;20172;-87
2022/09/24 06:55:39;;;;;;;4.30;3.85;;;12.60;99.90;;;;;;4899746;29;20300;-87
2022/09/24 06:58:12;;;;;;;4.78;4.28;;;12.60;99.90;;;;;;4921830;29;20189;-88
2022/09/24 07:00:52;;;;;;;5.22;3.90;;;12.60;99.90;;;;;;4922174;29;20182;-88
2022/09/24 07:03:25;;;;;;;5.43;4.40;;;12.60;99.90;;;;;;4921846;29;20209;-88
2022/09/24 07:06:03;;;;;;;7.28;4.88;;;12.70;99.90;;;;;;4938840;29;20197;-88
2022/09/24 07:08:35;;;;;;;5.03;4.10;;;12.70;99.90;;;;;;4921959;29;20280;-88
2022/09/24 07:11:06;;;;;;;5.40;4.13;;;12.70;99.90;;;;;;4922072;29;20174;-88
2022/09/24 07:13:32;;;;;;;6.05;4.72;;;12.80;99.90;;;;;;4922087;29;20261;-88
2022/09/24 07:16:00;;;;;;;7.57;4.50;;;12.90;99.90;;;;;;4921920;29;20257;-88
2022/09/24 07:18:26;;;;;;;6.25;5.13;;;13.00;99.90;;;;;;4921814;29;20181;-88
2022/09/24 07:20:59;;;;;;;7.63;4.72;;;13.00;99.90;;;;;;4921594;29;20681;-87
2022/09/24 07:23:26;;;;;;;7.22;4.85;;;13.10;99.90;;;;;;4921313;29;20190;-88
2022/09/24 07:25:55;;;;;;;9.93;5.13;;;13.10;99.90;;;;;;4911264;29;21152;-88
2022/09/24 07:28:25;;;;;;;6.95;5.15;;;13.20;99.90;;;;;;4919424;29;20266;-88
2022/09/24 07:30:58;;;;;;;10.40;5.15;;;13.30;99.90;;;;;;4919312;29;20163;-89
2022/09/24 07:33:24;;;;;;;6.60;4.90;;;13.30;99.90;;;;;;4902593;29;20175;-89
2022/09/24 07:35:53;;;;;;;5.45;4.15;;;13.30;99.90;;;;;;4902440;29;20206;-88
2022/09/24 07:38:19;;;;;;;7.35;4.95;;;13.40;99.90;;;;;;4902852;29;20179;-87
2022/09/24 07:40:45;;;;;;;5.88;5.10;;;13.40;99.90;;;;;;4902286;29;20183;-88
2022/09/24 07:43:13;;;;;;;7.72;5.70;;;13.40;99.90;;;;;;4902336;29;20184;-89
2022/09/24 07:45:41;;;;;;;7.88;5.60;;;13.50;99.90;;;;;;4902292;29;20199;-88
2022/09/24 07:48:11;;;;;;;9.77;5.93;;;13.50;99.90;;;;;;4902418;29;20206;-88
2022/09/24 07:50:40;;;;;;;7.78;5.30;;;13.50;99.90;;;;;;4902465;29;20179;-89
2022/09/24 07:53:15;;;;;;;7.53;5.50;;;13.50;99.90;;;;;;4901903;29;20270;-88
2022/09/24 07:55:43;;;;;;;7.88;5.85;;;13.50;99.90;;;;;;4909346;29;20696;-89
2022/09/24 07:58:12;;;;;;;6.40;5.47;;;13.50;99.90;;;;;;4921017;29;20174;-87
2022/09/24 08:00:51;;;;;;;6.70;5.55;;;13.50;99.90;;;;;;4920728;29;20545;-88
2022/09/24 08:03:30;;;;;;;7.70;6.28;;;13.60;99.90;;;;;;4921445;29;20194;-86
2022/09/24 08:05:58;;;;;;;6.28;5.68;;;13.60;99.90;;;;;;4920749;29;20204;-88
2022/09/24 08:08:27;;;;;;;7.55;5.88;;;13.70;99.90;;;;;;4920840;29;20206;-88
2022/09/24 08:10:53;;;;;;;11.07;5.70;;;13.70;99.90;;;;;;4920950;29;20222;-88
2022/09/24 08:13:24;;;;;;;8.95;6.55;;;13.80;99.90;;;;;;4920630;29;20222;-87
2022/09/24 08:16:03;;;;;;;8.48;5.78;;;13.80;99.90;;;;;;4920826;29;20205;-87
2022/09/24 08:18:31;;;;;;;10.00;6.63;;;13.90;99.90;;;;;;4920153;29;20169;-88
2022/09/24 08:21:02;;;;;;;9.02;6.28;;;13.90;99.90;;;;;;4920055;29;20226;-88
2022/09/24 08:23:27;;;;;;;8.55;6.18;;;14.00;99.90;;;;;;4937367;29;20162;-89
2022/09/24 08:25:55;;;;;;;8.27;5.70;;;14.00;99.90;;;;;;4910149;29;20663;-88
2022/09/24 08:28:34;;;;;;;8.57;5.82;;;14.00;99.90;;;;;;4901278;29;20198;-88
2022/09/24 08:31:07;;;;;;;6.78;5.68;;;14.10;99.90;;;;;;4901564;29;20703;-89
2022/09/24 08:33:35;;;;;;;8.75;5.45;;;14.10;99.90;;;;;;4901142;29;20183;-88
2022/09/24 08:36:05;;;;;;;9.35;5.53;;;14.10;99.90;;;;;;4901213;29;20214;-89
2022/09/24 08:38:35;;;;;;;7.63;4.97;;;14.20;99.90;;;;;;4901233;29;20655;-88
2022/09/24 08:41:37;;;;;;;10.07;4.90;;;14.20;99.90;;;;;;4901451;29;20234;-88
2022/09/24 08:47:21;;;;;;;8.88;6.50;;;14.20;99.90;;;;;;4901392;29;20261;-87
2022/09/24 08:47:35;;;;;;;9.65;5.95;;;14.30;99.90;;;;;;4917883;29;20163;-89
2022/09/24 08:50:30;;;;;;;7.63;5.18;;;14.30;99.90;;;;;;4901225;29;20171;-87
2022/09/24 08:53:31;;;;;;;7.90;5.35;;;14.30;99.90;;;;;;4898251;29;20187;-88
2022/09/24 08:56:00;;;;;;;7.75;5.82;;;14.30;99.90;;;;;;4900844;29;20297;-88
2022/09/24 08:58:44;;;;;;;6.30;4.90;;;14.30;99.90;;;;;;4916821;29;20205;-89
2022/09/24 09:01:41;;;;;;;6.88;5.32;;;14.30;99.90;;;;;;4901260;29;20210;-89
2022/09/24 09:04:17;;;;;;;8.60;5.40;;;14.40;99.90;;;;;;4872001;29;20262;-87
2022/09/24 09:07:17;;;;;;;7.65;4.97;;;14.40;99.90;;;;;;4917444;29;20193;-89
2022/09/24 09:10:13;;;;;;;5.95;4.82;;;14.50;99.90;;;;;;4901001;29;20178;-88
2022/09/24 09:12:52;;;;;;;5.97;4.68;;;14.40;99.90;;;;;;4900733;29;20218;-89
2022/09/24 09:15:28;;;;;;;8.88;5.63;;;14.50;99.90;;;;;;4916237;29;20206;-89
2022/09/24 09:18:32;;;;;;;6.68;4.60;;;14.50;99.90;;;;;;4900742;29;20545;-88
2022/09/24 09:21:26;;;;;;;4.90;4.40;;;14.60;99.90;;;;;;4917723;29;20237;-89
2022/09/24 09:23:56;;;;;;;5.75;4.35;;;14.70;99.90;;;;;;4915662;29;20655;-88
2022/09/24 09:26:28;;;;;;;7.30;4.72;;;14.70;99.90;;;;;;4930087;29;20251;-89
2022/09/24 09:28:59;;;;;;;6.70;4.18;;;14.80;99.90;;;;;;4919377;29;20205;-89
2022/09/24 09:31:50;;;;;;;5.43;3.83;;;14.80;99.90;;;;;;4919643;29;20174;-90
2022/09/24 09:34:53;;;;;;;9.02;3.78;;;14.80;99.90;;;;;;4919257;29;20201;-89
2022/09/24 09:37:36;;;;;;;5.05;3.60;;;14.90;99.90;;;;;;4918801;29;20189;-86
2022/09/24 09:40:28;;;;;;;4.88;3.55;;;14.90;99.90;;;;;;4919411;29;20257;-89
2022/09/24 09:43:09;;;;;;;5.10;3.90;;;15.00;99.90;;;;;;4918970;29;20166;-88
2022/09/24 09:48:44;;;;;;;5.00;4.05;;;15.10;99.90;;;;;;4936458;29;20201;-89
2022/09/24 09:51:19;;;;;;;5.00;3.17;;;15.20;99.90;;;;;;4919408;29;20162;-89
2022/09/24 09:53:57;;;;;;;7.78;3.40;;;15.20;99.90;;;;;;4919391;29;20642;-88
2022/09/24 09:56:33;;;;;;;3.60;2.90;;;15.20;99.90;;;;;;4919228;29;20194;-87
2022/09/24 09:59:16;;;;;;;3.85;3.10;;;15.20;99.90;;;;;;4918997;29;20293;-89
2022/09/24 10:01:55;;;;;;;3.70;2.97;;;15.30;99.90;;;;;;4918962;29;20189;-88
2022/09/24 10:04:40;;;;;;;4.45;3.47;;;15.30;99.90;;;;;;4936222;29;20244;-88
2022/09/24 10:07:17;;;;;;;3.65;2.80;;;15.40;99.90;;;;;;4911338;29;20194;-89
2022/09/24 10:10:12;;;;;;;3.38;2.72;;;15.40;99.90;;;;;;4900202;29;20721;-88
2022/09/24 10:12:41;;;;;;;3.15;2.75;;;15.50;99.90;;;;;;4898089;29;21016;-88
2022/09/24 10:15:13;;;;;;;3.28;2.85;;;15.50;99.90;;;;;;4900101;29;20240;-89
2022/09/24 10:17:39;;;;;;;3.70;3.08;;;15.50;99.90;;;;;;4916973;29;20215;-89
2022/09/24 10:20:14;;;;;;;5.40;3.33;;;15.50;99.90;;;;;;4903631;29;20182;-89
2022/09/24 10:22:57;;;;;;;4.78;2.97;;;15.60;99.90;;;;;;4903996;29;20175;-90
2022/09/24 10:25:27;;;;;;;5.32;3.42;;;15.60;99.90;;;;;;4898479;29;20227;-88
2022/09/24 10:31:05;;;;;;;5.22;3.50;;;15.70;99.90;;;;;;4902066;29;20171;-88
2022/09/24 10:33:41;;;;;;;4.63;3.10;;;15.80;99.90;;;;;;4884873;29;20175;-88
2022/09/24 10:36:33;;;;;;;3.92;3.10;;;15.90;99.90;;;;;;4884989;29;20309;-89
2022/09/24 10:39:14;;;;;;;3.45;3.15;;;16.00;99.90;;;;;;4885025;29;20176;-90
2022/09/24 10:41:58;;;;;;;3.72;3.03;;;16.10;99.90;;;;;;4884718;29;20254;-88
2022/09/24 10:44:34;;;;;;;4.03;2.90;;;16.10;99.90;;;;;;4884830;29;20175;-88
2022/09/24 10:47:09;;;;;;;6.13;3.42;;;16.20;99.90;;;;;;4884730;29;20177;-89
2022/09/24 10:49:57;;;;;;;5.63;2.92;;;16.30;99.90;;;;;;4884818;29;20186;-89
2022/09/24 10:52:52;;;;;;;5.20;2.80;;;16.30;99.90;;;;;;4884356;29;20227;-88
2022/09/24 10:55:40;;;;;;;6.15;3.08;;;16.40;99.90;;;;;;4877385;29;20207;-88
2022/09/24 10:58:22;;;;;;;5.07;3.08;;;16.50;99.90;;;;;;4884531;29;20676;-88
2022/09/24 11:01:23;;;;;;;7.25;2.90;;;16.50;99.90;;;;;;4901128;29;20179;-87
2022/09/24 11:04:17;;;;;;;6.43;3.15;;;16.60;99.90;;;;;;4901092;29;20246;-88
2022/09/24 11:07:19;;;;;;;3.75;2.83;;;16.60;99.90;;;;;;4889217;29;20198;-89
2022/09/24 11:10:20;;;;;;;3.10;2.80;;;16.70;99.90;;;;;;4919930;29;20178;-87
2022/09/24 11:13:12;;;;;;;4.20;3.10;;;16.70;99.90;;;;;;4902836;29;20243;-88
2022/09/24 11:16:17;;;;;;;2.75;2.53;;;16.70;99.90;;;;;;4902893;29;20250;-90
2022/09/24 11:18:52;;;;;;;3.45;2.72;;;16.70;99.90;;;;;;4919610;29;20215;-89
2022/09/24 11:21:45;;;;;;;4.60;3.22;;;16.80;99.90;;;;;;4902942;29;20174;-89
2022/09/24 11:24:21;;;;;;;3.85;2.95;;;16.80;99.90;;;;;;4919423;29;20181;-87
2022/09/24 11:27:15;;;;;;;4.82;2.83;;;16.90;99.90;;;;;;4918940;29;20236;-88
2022/09/24 11:30:13;;;;;;;4.15;2.80;;;16.80;99.90;;;;;;4921175;29;20288;-88
2022/09/24 11:33:10;;;;;;;4.68;2.85;;;16.80;99.90;;;;;;4921449;29;20623;-89
2022/09/24 11:36:26;;;;;;;4.97;2.85;;;16.90;99.90;;;;;;4921554;29;20206;-88
2022/09/24 11:39:18;;;;;;;3.95;2.80;;;16.80;99.90;;;;;;4827475;29;20197;-87
2022/09/24 11:41:51;;;;;;;3.20;2.45;;;16.70;99.90;;;;;;4842422;29;20340;-88
2022/09/24 11:44:32;;;;;;;6.80;3.15;;;16.70;99.90;;;;;;4899771;29;20189;-87
2022/09/24 11:47:26;;;;;;;5.43;2.83;;;16.50;99.90;;;;;;4921318;29;20166;-88
2022/09/24 11:49:59;;;;;;;3.70;2.90;;;16.50;99.90;;;;;;4920437;29;20181;-89
2022/09/24 11:52:38;;;;;;;5.15;3.20;;;16.50;99.90;;;;;;4920079;29;20233;-88
2022/09/24 11:55:20;;;;;;;4.28;2.78;;;16.40;99.90;;;;;;4920928;29;20202;-88
2022/09/24 11:57:59;;;;;;;4.45;2.92;;;16.40;99.90;;;;;;4920839;29;20174;-90
2022/09/24 12:00:30;;;;;;;2.50;2.30;;;16.40;99.90;;;;;;4921089;29;20257;-89
2022/09/24 12:03:30;;;;;;;4.53;2.85;;;16.40;99.90;;;;;;4920880;29;20632;-88
2022/09/24 12:06:24;;;;;;;3.38;2.42;;;16.40;99.90;;;;;;4920609;29;20233;-88
2022/09/24 12:08:54;;;;;;;3.35;3.00;;;16.40;99.90;;;;;;4883293;29;20232;-88
2022/09/24 12:11:58;;;;;;;5.93;3.10;;;16.30;99.90;;;;;;4898896;29;20179;-88
2022/09/24 12:14:43;;;;;;;5.55;2.97;;;16.30;99.90;;;;;;4870448;29;20210;-90
2022/09/24 12:17:17;;;;;;;4.75;2.72;;;16.30;99.90;;;;;;4883208;29;20179;-89
2022/09/24 12:20:08;;;;;;;6.55;3.20;;;16.30;99.90;;;;;;4898891;29;20179;-89
2022/09/24 12:22:38;;;;;;;3.85;2.90;;;16.30;99.90;;;;;;4899742;29;20250;-89
2022/09/24 12:25:11;;;;;;;4.85;2.92;;;16.20;99.90;;;;;;4882572;29;20239;-89
2022/09/24 12:27:38;;;;;;;4.13;2.72;;;16.20;99.90;;;;;;4898372;29;20252;-89
2022/09/24 12:33:31;;;;;;;3.17;2.72;;;16.10;99.90;;;;;;4899791;29;20655;-88
2022/09/24 12:36:03;;;;;;;3.30;2.90;;;16.00;99.90;;;;;;4898591;29;20202;-88
2022/09/24 12:38:44;;;;;;;4.30;2.90;;;16.00;99.90;;;;;;4900513;29;20193;-89
2022/09/24 12:41:33;;;;;;;3.63;2.92;;;16.00;99.90;;;;;;4900782;29;20262;-89
2022/09/24 12:44:09;;;;;;;3.88;3.00;;;16.10;99.90;;;;;;4901320;29;20174;-89
2022/09/24 12:46:51;;;;;;;4.03;2.45;;;16.10;99.90;;;;;;4901474;29;20170;-89
2022/09/24 12:49:36;;;;;;;2.88;2.45;;;16.10;99.90;;;;;;4900816;29;20214;-90
2022/09/24 12:52:26;;;;;;;3.22;2.70;;;16.20;99.90;;;;;;4901268;29;20693;-90
2022/09/24 12:55:05;;;;;;;3.53;2.58;;;16.20;99.90;;;;;;4901251;29;20544;-88
2022/09/24 12:57:41;;;;;;;3.88;3.08;;;16.20;99.90;;;;;;4900982;29;20181;-89
2022/09/24 13:00:44;;;;;;;5.20;2.80;;;16.20;99.90;;;;;;4901159;29;20174;-88
2022/09/24 13:03:41;;;;;;;7.25;3.45;;;16.10;99.90;;;;;;4917664;29;20162;-88
2022/09/24 13:06:36;;;;;;;3.20;2.33;;;16.10;99.90;;;;;;4901001;29;20754;-89
2022/09/24 13:09:22;;;;;;;5.88;3.28;;;16.00;99.90;;;;;;4850898;29;20224;-86
2022/09/24 13:12:16;;;;;;;4.68;3.83;;;16.00;99.90;;;;;;4900795;29;20167;-87
2022/09/24 13:15:05;;;;;;;4.55;3.83;;;15.90;99.90;;;;;;4894081;29;20691;-87
2022/09/24 13:17:34;;;;;;;5.97;3.50;;;15.90;99.90;;;;;;4916254;29;20186;-91
2022/09/24 13:20:05;;;;;;;4.70;3.92;;;16.00;99.90;;;;;;4900611;29;20173;-88
2022/09/24 13:22:36;;;;;;;8.45;3.95;;;15.90;99.90;;;;;;4916675;29;20186;-89
2022/09/24 13:25:25;;;;;;;3.50;3.03;;;16.00;99.90;;;;;;4899721;29;20225;-89
2022/09/24 13:28:19;;;;;;;2.75;2.45;;;16.00;99.90;;;;;;4900282;29;20210;-89
2022/09/24 13:30:49;;;;;;;4.65;3.45;;;15.90;99.90;;;;;;4900875;29;20167;-88
2022/09/24 13:33:28;;;;;;;8.50;4.22;;;15.90;99.90;;;;;;4900902;29;20612;-90
2022/09/24 13:35:57;;;;;;;7.15;4.32;;;15.80;99.90;;;;;;4917477;29;20314;-90
2022/09/24 13:38:53;;;;;;;10.70;5.15;;;15.90;99.90;;;;;;4900719;29;20184;-89
2022/09/24 13:41:31;;;;;;;8.43;4.68;;;15.80;99.90;;;;;;4900728;29;20342;-90
2022/09/24 13:44:03;;;;;;;8.50;4.30;;;15.80;99.90;;;;;;4900253;29;20166;-89
2022/09/24 13:46:31;;;;;;;9.75;4.72;;;15.80;99.90;;;;;;4900461;29;20239;-89
2022/09/24 13:49:05;;;;;;;9.00;4.55;;;15.80;99.90;;;;;;4900429;29;20213;-89